sensor_id;sensor_type;location;lat;lon;timestamp;pressure;altitude;pressure_sealevel;temperature;humidity
21658;BME280;10990;48.174;9.782;2023-08-20T00:00:55;93973.75;;;21.35;100.00
21658;BME280;10990;48.174;9.782;2023-08-20T00:03:23;93979.22;;;21.40;100.00
21658;BME280;10990;48.174;9.782;2023-08-20T00:05:51;93983.75;;;21.40;100.00
21658;BME280;10990;48.174;9.782;2023-08-20T00:19:21;94022.06;;;20.93;100.00
21658;BME280;10990;48.174;9.782;2023-08-20T00:21:48;94000.03;;;20.69;100.00
21658;BME280;10990;48.174;9.782;2023-08-20T00:24:15;93994.44;;;20.70;100.00
21658;BME280;10990;48.174;9.782;2023-08-20T00:26:43;93990.59;;;20.66;100.00
21658;BME280;10990;48.174;9.782;2023-08-20T00:29:10;93983.75;;;20.75;100.00
21658;BME280;10990;48.174;9.782;2023-08-20T00:31:36;93993.06;;;20.68;100.00
21658;BME280;10990;48.174;9.782;2023-08-20T00:34:03;94001.34;;;20.66;100.00
21658;BME280;10990;48.174;9.782;2023-08-20T00:36:32;94019.78;;;20.57;100.00
21658;BME280;10990;48.174;9.782;2023-08-20T00:38:59;94008.88;;;20.64;100.00
21658;BME280;10990;48.174;9.782;2023-08-20T00:41:25;94015.06;;;20.65;100.00
21658;BME280;10990;48.174;9.782;2023-08-20T00:43:52;94021.00;;;20.67;100.00
21658;BME280;10990;48.174;9.782;2023-08-20T00:46:19;94009.75;;;20.75;100.00
21658;BME280;10990;48.174;9.782;2023-08-20T00:48:46;94011.91;;;20.73;100.00
21658;BME280;10990;48.174;9.782;2023-08-20T00:51:13;94012.06;;;20.61;100.00
21658;BME280;10990;48.174;9.782;2023-08-20T00:53:41;94010.78;;;20.69;100.00
21658;BME280;10990;48.174;9.782;2023-08-20T00:56:08;94004.94;;;20.50;100.00
21658;BME280;10990;48.174;9.782;2023-08-20T00:58:37;94003.00;;;20.45;100.00
21658;BME280;10990;48.174;9.782;2023-08-20T01:01:04;93982.47;;;20.34;100.00
21658;BME280;10990;48.174;9.782;2023-08-20T01:03:31;93987.03;;;20.33;100.00
21658;BME280;10990;48.174;9.782;2023-08-20T01:06:06;93980.47;;;20.02;100.00
21658;BME280;10990;48.174;9.782;2023-08-20T01:08:38;93965.13;;;20.20;100.00
21658;BME280;10990;48.174;9.782;2023-08-20T01:11:12;93976.97;;;20.24;100.00
21658;BME280;10990;48.174;9.782;2023-08-20T01:13:41;93978.28;;;20.21;100.00
21658;BME280;10990;48.174;9.782;2023-08-20T01:16:08;93983.19;;;20.29;100.00
21658;BME280;10990;48.174;9.782;2023-08-20T01:18:34;93993.63;;;20.26;100.00
21658;BME280;10990;48.174;9.782;2023-08-20T01:21:06;93978.84;;;20.23;100.00
21658;BME280;10990;48.174;9.782;2023-08-20T01:23:55;93970.91;;;20.11;100.00
21658;BME280;10990;48.174;9.782;2023-08-20T01:26:54;93957.00;;;20.14;100.00
21658;BME280;10990;48.174;9.782;2023-08-20T01:29:24;93958.38;;;20.17;100.00
21658;BME280;10990;48.174;9.782;2023-08-20T01:31:53;93950.63;;;20.21;100.00
21658;BME280;10990;48.174;9.782;2023-08-20T01:34:21;93967.66;;;20.31;100.00
21658;BME280;10990;48.174;9.782;2023-08-20T01:36:48;93966.34;;;20.12;100.00
21658;BME280;10990;48.174;9.782;2023-08-20T01:39:15;93970.47;;;20.20;100.00
21658;BME280;10990;48.174;9.782;2023-08-20T01:41:44;93966.06;;;20.08;100.00
21658;BME280;10990;48.174;9.782;2023-08-20T01:44:11;93977.34;;;19.88;100.00
21658;BME280;10990;48.174;9.782;2023-08-20T01:46:39;93956.50;;;19.96;100.00
21658;BME280;10990;48.174;9.782;2023-08-20T01:49:06;93967.63;;;19.82;100.00
21658;BME280;10990;48.174;9.782;2023-08-20T01:51:32;93901.22;;;19.95;100.00
21658;BME280;10990;48.174;9.782;2023-08-20T01:53:59;93893.53;;;19.81;100.00
21658;BME280;10990;48.174;9.782;2023-08-20T01:56:27;93876.91;;;19.62;100.00
21658;BME280;10990;48.174;9.782;2023-08-20T01:58:54;93850.13;;;19.84;100.00
21658;BME280;10990;48.174;9.782;2023-08-20T02:01:20;93854.88;;;19.77;100.00
21658;BME280;10990;48.174;9.782;2023-08-20T02:03:49;93852.72;;;19.79;100.00
21658;BME280;10990;48.174;9.782;2023-08-20T02:06:15;93863.44;;;20.01;100.00
21658;BME280;10990;48.174;9.782;2023-08-20T02:08:44;93891.28;;;19.95;100.00
21658;BME280;10990;48.174;9.782;2023-08-20T02:11:12;93896.59;;;19.90;100.00
21658;BME280;10990;48.174;9.782;2023-08-20T02:13:39;93895.66;;;19.79;100.00
21658;BME280;10990;48.174;9.782;2023-08-20T02:16:06;93888.75;;;19.83;100.00
21658;BME280;10990;48.174;9.782;2023-08-20T02:18:33;93898.13;;;19.64;100.00
21658;BME280;10990;48.174;9.782;2023-08-20T02:21:02;93697.88;;;19.69;100.00
21658;BME280;10990;48.174;9.782;2023-08-20T02:23:29;93652.28;;;19.69;100.00
21658;BME280;10990;48.174;9.782;2023-08-20T02:25:56;93637.16;;;19.58;100.00
21658;BME280;10990;48.174;9.782;2023-08-20T02:28:23;93621.97;;;19.69;100.00
21658;BME280;10990;48.174;9.782;2023-08-20T02:30:50;93594.09;;;19.70;100.00
21658;BME280;10990;48.174;9.782;2023-08-20T02:33:17;93587.22;;;19.84;100.00
21658;BME280;10990;48.174;9.782;2023-08-20T02:35:44;93607.34;;;19.87;100.00
21658;BME280;10990;48.174;9.782;2023-08-20T02:38:12;93607.31;;;19.82;100.00
21658;BME280;10990;48.174;9.782;2023-08-20T02:40:41;93616.34;;;19.65;100.00
21658;BME280;10990;48.174;9.782;2023-08-20T02:43:07;93605.22;;;19.89;100.00
21658;BME280;10990;48.174;9.782;2023-08-20T02:45:39;93624.81;;;19.89;100.00
21658;BME280;10990;48.174;9.782;2023-08-20T02:48:07;93634.13;;;19.82;100.00
21658;BME280;10990;48.174;9.782;2023-08-20T02:50:34;93656.06;;;19.74;100.00
21658;BME280;10990;48.174;9.782;2023-08-20T02:53:01;93655.84;;;19.53;100.00
21658;BME280;10990;48.174;9.782;2023-08-20T02:55:30;93688.66;;;19.11;100.00
21658;BME280;10990;48.174;9.782;2023-08-20T02:57:57;93646.66;;;19.17;100.00
21658;BME280;10990;48.174;9.782;2023-08-20T03:00:24;93640.28;;;18.96;100.00
21658;BME280;10990;48.174;9.782;2023-08-20T03:02:51;93604.78;;;19.11;100.00
21658;BME280;10990;48.174;9.782;2023-08-20T03:05:18;93598.41;;;19.17;100.00
21658;BME280;10990;48.174;9.782;2023-08-20T03:07:45;93596.34;;;19.24;100.00
21658;BME280;10990;48.174;9.782;2023-08-20T03:10:11;93597.16;;;19.24;100.00
21658;BME280;10990;48.174;9.782;2023-08-20T03:12:40;93604.69;;;19.27;100.00
21658;BME280;10990;48.174;9.782;2023-08-20T03:15:07;93618.19;;;19.11;100.00
21658;BME280;10990;48.174;9.782;2023-08-20T03:17:34;93579.25;;;19.03;100.00
21658;BME280;10990;48.174;9.782;2023-08-20T03:20:01;93557.47;;;19.21;100.00
21658;BME280;10990;48.174;9.782;2023-08-20T03:22:30;93566.03;;;19.18;100.00
21658;BME280;10990;48.174;9.782;2023-08-20T03:24:56;93559.69;;;19.30;100.00
21658;BME280;10990;48.174;9.782;2023-08-20T03:27:23;93561.91;;;19.38;100.00
21658;BME280;10990;48.174;9.782;2023-08-20T03:29:51;93564.28;;;19.34;100.00
21658;BME280;10990;48.174;9.782;2023-08-20T03:32:19;93583.09;;;19.39;100.00
21658;BME280;10990;48.174;9.782;2023-08-20T03:34:46;93584.97;;;19.39;100.00
21658;BME280;10990;48.174;9.782;2023-08-20T03:37:16;93588.38;;;19.34;100.00
21658;BME280;10990;48.174;9.782;2023-08-20T03:39:43;93601.72;;;19.24;100.00
21658;BME280;10990;48.174;9.782;2023-08-20T03:42:10;93599.03;;;19.24;100.00
21658;BME280;10990;48.174;9.782;2023-08-20T03:44:37;93592.94;;;19.34;100.00
21658;BME280;10990;48.174;9.782;2023-08-20T03:47:06;93590.50;;;19.27;100.00
21658;BME280;10990;48.174;9.782;2023-08-20T03:49:32;93589.88;;;19.20;100.00
21658;BME280;10990;48.174;9.782;2023-08-20T03:51:59;93588.72;;;19.11;100.00
21658;BME280;10990;48.174;9.782;2023-08-20T03:54:28;93593.00;;;19.12;100.00
21658;BME280;10990;48.174;9.782;2023-08-20T03:56:56;93584.59;;;18.98;100.00
21658;BME280;10990;48.174;9.782;2023-08-20T03:59:23;93542.31;;;19.05;100.00
21658;BME280;10990;48.174;9.782;2023-08-20T04:01:50;93554.41;;;19.08;100.00
21658;BME280;10990;48.174;9.782;2023-08-20T04:04:19;93545.63;;;19.17;100.00
21658;BME280;10990;48.174;9.782;2023-08-20T04:06:46;93559.63;;;19.24;100.00
21658;BME280;10990;48.174;9.782;2023-08-20T04:09:13;93563.06;;;19.15;100.00
21658;BME280;10990;48.174;9.782;2023-08-20T04:11:40;93582.00;;;19.08;100.00
21658;BME280;10990;48.174;9.782;2023-08-20T04:14:08;93598.63;;;19.10;100.00
21658;BME280;10990;48.174;9.782;2023-08-20T04:16:36;93602.97;;;19.16;100.00
21658;BME280;10990;48.174;9.782;2023-08-20T04:19:03;93620.63;;;19.12;100.00
21658;BME280;10990;48.174;9.782;2023-08-20T04:21:32;93640.41;;;18.84;100.00
21658;BME280;10990;48.174;9.782;2023-08-20T04:23:58;93646.66;;;18.51;100.00
21658;BME280;10990;48.174;9.782;2023-08-20T04:26:26;93611.66;;;18.35;100.00
21658;BME280;10990;48.174;9.782;2023-08-20T04:28:53;93575.88;;;18.64;100.00
21658;BME280;10990;48.174;9.782;2023-08-20T04:31:20;93573.81;;;18.71;100.00
21658;BME280;10990;48.174;9.782;2023-08-20T04:33:56;93564.34;;;18.63;100.00
21658;BME280;10990;48.174;9.782;2023-08-20T04:36:35;93559.88;;;18.69;100.00
21658;BME280;10990;48.174;9.782;2023-08-20T04:39:02;93565.72;;;18.66;100.00
21658;BME280;10990;48.174;9.782;2023-08-20T04:41:33;93546.16;;;18.87;100.00
21658;BME280;10990;48.174;9.782;2023-08-20T04:44:02;93548.06;;;18.92;100.00
21658;BME280;10990;48.174;9.782;2023-08-20T04:46:30;93549.72;;;18.93;100.00
21658;BME280;10990;48.174;9.782;2023-08-20T04:48:57;93537.50;;;18.80;100.00
21658;BME280;10990;48.174;9.782;2023-08-20T04:51:24;93531.41;;;18.85;100.00
21658;BME280;10990;48.174;9.782;2023-08-20T04:53:52;93532.00;;;18.92;100.00
21658;BME280;10990;48.174;9.782;2023-08-20T04:56:19;93520.94;;;19.10;100.00
21658;BME280;10990;48.174;9.782;2023-08-20T04:58:46;93526.84;;;19.12;100.00
21658;BME280;10990;48.174;9.782;2023-08-20T05:01:22;93539.97;;;19.14;100.00
21658;BME280;10990;48.174;9.782;2023-08-20T05:03:49;93524.56;;;19.31;100.00
21658;BME280;10990;48.174;9.782;2023-08-20T05:06:16;93517.00;;;19.55;100.00
21658;BME280;10990;48.174;9.782;2023-08-20T05:08:43;93521.88;;;19.63;100.00
21658;BME280;10990;48.174;9.782;2023-08-20T05:11:11;93522.63;;;19.91;100.00
21658;BME280;10990;48.174;9.782;2023-08-20T05:13:39;93532.63;;;20.06;100.00
21658;BME280;10990;48.174;9.782;2023-08-20T05:16:05;93565.91;;;20.05;100.00
21658;BME280;10990;48.174;9.782;2023-08-20T05:18:32;93579.31;;;20.05;100.00
21658;BME280;10990;48.174;9.782;2023-08-20T05:21:00;93585.81;;;20.14;100.00
21658;BME280;10990;48.174;9.782;2023-08-20T05:23:28;93602.13;;;20.02;100.00
21658;BME280;10990;48.174;9.782;2023-08-20T05:25:56;93611.41;;;19.89;100.00
21658;BME280;10990;48.174;9.782;2023-08-20T05:28:24;93597.13;;;20.26;100.00
21658;BME280;10990;48.174;9.782;2023-08-20T05:30:55;93602.59;;;20.42;100.00
21658;BME280;10990;48.174;9.782;2023-08-20T05:33:22;93612.06;;;20.54;100.00
21658;BME280;10990;48.174;9.782;2023-08-20T05:35:49;93616.19;;;20.77;100.00
21658;BME280;10990;48.174;9.782;2023-08-20T05:38:17;93645.06;;;21.08;100.00
21658;BME280;10990;48.174;9.782;2023-08-20T05:40:45;93678.47;;;21.32;100.00
21658;BME280;10990;48.174;9.782;2023-08-20T05:43:12;93707.53;;;21.35;100.00
21658;BME280;10990;48.174;9.782;2023-08-20T05:45:41;93725.06;;;21.38;100.00
21658;BME280;10990;48.174;9.782;2023-08-20T05:48:11;93709.75;;;21.43;100.00
21658;BME280;10990;48.174;9.782;2023-08-20T05:50:37;93702.25;;;21.76;100.00
21658;BME280;10990;48.174;9.782;2023-08-20T05:53:04;93703.63;;;21.94;100.00
21658;BME280;10990;48.174;9.782;2023-08-20T05:55:32;93709.28;;;21.92;100.00
21658;BME280;10990;48.174;9.782;2023-08-20T05:57:59;93712.78;;;22.08;100.00
21658;BME280;10990;48.174;9.782;2023-08-20T06:00:26;93719.81;;;22.35;100.00
21658;BME280;10990;48.174;9.782;2023-08-20T06:02:54;93733.53;;;22.44;100.00
21658;BME280;10990;48.174;9.782;2023-08-20T06:05:21;93742.13;;;22.66;100.00
21658;BME280;10990;48.174;9.782;2023-08-20T06:07:48;93751.06;;;22.46;100.00
21658;BME280;10990;48.174;9.782;2023-08-20T06:10:15;93736.16;;;23.10;100.00
21658;BME280;10990;48.174;9.782;2023-08-20T06:12:42;93761.47;;;23.14;100.00
21658;BME280;10990;48.174;9.782;2023-08-20T06:15:09;93781.59;;;23.42;100.00
21658;BME280;10990;48.174;9.782;2023-08-20T06:17:36;93778.53;;;23.69;100.00
21658;BME280;10990;48.174;9.782;2023-08-20T06:20:05;93796.66;;;23.64;100.00
21658;BME280;10990;48.174;9.782;2023-08-20T06:22:33;93809.03;;;23.75;100.00
21658;BME280;10990;48.174;9.782;2023-08-20T06:25:00;93846.28;;;24.33;100.00
21658;BME280;10990;48.174;9.782;2023-08-20T06:27:28;93883.16;;;24.58;100.00
21658;BME280;10990;48.174;9.782;2023-08-20T06:29:55;93948.38;;;24.91;100.00
21658;BME280;10990;48.174;9.782;2023-08-20T06:32:21;93974.00;;;25.03;100.00
21658;BME280;10990;48.174;9.782;2023-08-20T06:34:48;94018.66;;;24.96;100.00
21658;BME280;10990;48.174;9.782;2023-08-20T06:37:16;94030.63;;;25.68;100.00
21658;BME280;10990;48.174;9.782;2023-08-20T06:39:43;94077.00;;;25.96;100.00
21658;BME280;10990;48.174;9.782;2023-08-20T06:42:10;94144.31;;;26.13;100.00
21658;BME280;10990;48.174;9.782;2023-08-20T06:44:37;94277.03;;;26.63;100.00
21658;BME280;10990;48.174;9.782;2023-08-20T06:47:04;94417.56;;;26.55;100.00
21658;BME280;10990;48.174;9.782;2023-08-20T06:49:31;94491.25;;;26.68;100.00
21658;BME280;10990;48.174;9.782;2023-08-20T06:51:58;94579.16;;;26.46;100.00
21658;BME280;10990;48.174;9.782;2023-08-20T06:54:26;94686.56;;;26.63;100.00
21658;BME280;10990;48.174;9.782;2023-08-20T06:56:53;94752.41;;;27.09;100.00
21658;BME280;10990;48.174;9.782;2023-08-20T06:59:19;94994.50;;;28.03;100.00
21658;BME280;10990;48.174;9.782;2023-08-20T07:01:46;95253.41;;;28.56;100.00
21658;BME280;10990;48.174;9.782;2023-08-20T07:04:13;95453.44;;;28.06;100.00
21658;BME280;10990;48.174;9.782;2023-08-20T07:06:40;95532.91;;;28.13;100.00
21658;BME280;10990;48.174;9.782;2023-08-20T07:09:07;95583.03;;;28.28;100.00
21658;BME280;10990;48.174;9.782;2023-08-20T07:11:36;95681.00;;;28.38;100.00
